sensor_id;sensor_type;location;lat;lon;timestamp;temperature;humidity
12853;DHT22;6495;51.808;7.478;2022-07-21T00:01:16;23.20;99.90
12853;DHT22;6495;51.808;7.478;2022-07-21T00:03:45;23.20;99.90
12853;DHT22;6495;51.808;7.478;2022-07-21T00:06:13;23.20;99.90
12853;DHT22;6495;51.808;7.478;2022-07-21T00:08:42;23.20;99.90
12853;DHT22;6495;51.808;7.478;2022-07-21T00:11:10;23.20;99.90
12853;DHT22;6495;51.808;7.478;2022-07-21T00:13:39;23.10;99.90
12853;DHT22;6495;51.808;7.478;2022-07-21T00:16:08;23.10;99.90
12853;DHT22;6495;51.808;7.478;2022-07-21T00:18:38;23.10;99.90
12853;DHT22;6495;51.808;7.478;2022-07-21T00:21:06;23.00;99.90
12853;DHT22;6495;51.808;7.478;2022-07-21T00:23:35;23.00;99.90
12853;DHT22;6495;51.808;7.478;2022-07-21T00:26:03;23.00;99.90
12853;DHT22;6495;51.808;7.478;2022-07-21T00:28:32;23.00;99.90
12853;DHT22;6495;51.808;7.478;2022-07-21T00:31:00;22.90;99.90
12853;DHT22;6495;51.808;7.478;2022-07-21T00:33:29;22.90;99.90
12853;DHT22;6495;51.808;7.478;2022-07-21T00:35:59;22.90;99.90
12853;DHT22;6495;51.808;7.478;2022-07-21T00:38:27;22.90;99.90
12853;DHT22;6495;51.808;7.478;2022-07-21T00:40:56;22.80;99.90
12853;DHT22;6495;51.808;7.478;2022-07-21T00:43:25;22.80;99.90
12853;DHT22;6495;51.808;7.478;2022-07-21T00:45:54;22.80;99.90
12853;DHT22;6495;51.808;7.478;2022-07-21T00:48:23;22.80;99.90
12853;DHT22;6495;51.808;7.478;2022-07-21T00:50:52;22.80;99.90
12853;DHT22;6495;51.808;7.478;2022-07-21T00:53:22;22.80;99.90
12853;DHT22;6495;51.808;7.478;2022-07-21T00:55:51;22.80;99.90
12853;DHT22;6495;51.808;7.478;2022-07-21T00:58:19;22.70;99.90
12853;DHT22;6495;51.808;7.478;2022-07-21T01:00:50;22.70;99.90
12853;DHT22;6495;51.808;7.478;2022-07-21T01:03:19;22.70;99.90
12853;DHT22;6495;51.808;7.478;2022-07-21T01:05:47;22.70;99.90
12853;DHT22;6495;51.808;7.478;2022-07-21T01:08:16;22.70;99.90
12853;DHT22;6495;51.808;7.478;2022-07-21T01:10:47;22.70;99.90
12853;DHT22;6495;51.808;7.478;2022-07-21T01:13:16;22.70;99.90
12853;DHT22;6495;51.808;7.478;2022-07-21T01:15:45;22.60;99.90
12853;DHT22;6495;51.808;7.478;2022-07-21T01:18:14;22.60;99.90
12853;DHT22;6495;51.808;7.478;2022-07-21T01:20:45;22.60;99.90
12853;DHT22;6495;51.808;7.478;2022-07-21T01:23:21;22.50;99.90
12853;DHT22;6495;51.808;7.478;2022-07-21T01:25:50;22.50;99.90
12853;DHT22;6495;51.808;7.478;2022-07-21T01:28:19;22.40;99.90
12853;DHT22;6495;51.808;7.478;2022-07-21T01:30:47;22.40;99.90
12853;DHT22;6495;51.808;7.478;2022-07-21T01:33:17;22.40;99.90
12853;DHT22;6495;51.808;7.478;2022-07-21T01:35:45;22.40;99.90
12853;DHT22;6495;51.808;7.478;2022-07-21T01:38:14;22.40;99.90
12853;DHT22;6495;51.808;7.478;2022-07-21T01:40:59;22.30;99.90
12853;DHT22;6495;51.808;7.478;2022-07-21T01:43:46;22.30;99.90
12853;DHT22;6495;51.808;7.478;2022-07-21T01:46:14;22.30;99.90
12853;DHT22;6495;51.808;7.478;2022-07-21T01:48:43;22.30;99.90
12853;DHT22;6495;51.808;7.478;2022-07-21T01:51:13;22.30;99.90
12853;DHT22;6495;51.808;7.478;2022-07-21T01:53:41;22.30;99.90
12853;DHT22;6495;51.808;7.478;2022-07-21T01:56:11;22.30;99.90
12853;DHT22;6495;51.808;7.478;2022-07-21T01:58:40;22.30;99.90
12853;DHT22;6495;51.808;7.478;2022-07-21T02:01:08;22.30;99.90
12853;DHT22;6495;51.808;7.478;2022-07-21T02:03:37;22.30;99.90
12853;DHT22;6495;51.808;7.478;2022-07-21T02:06:06;22.20;99.90
12853;DHT22;6495;51.808;7.478;2022-07-21T02:08:35;22.20;99.90
12853;DHT22;6495;51.808;7.478;2022-07-21T02:11:05;22.10;99.90
12853;DHT22;6495;51.808;7.478;2022-07-21T02:13:35;22.10;99.90
12853;DHT22;6495;51.808;7.478;2022-07-21T02:16:04;22.00;99.90
12853;DHT22;6495;51.808;7.478;2022-07-21T02:18:34;22.00;99.90
12853;DHT22;6495;51.808;7.478;2022-07-21T02:21:04;21.90;99.90
12853;DHT22;6495;51.808;7.478;2022-07-21T02:23:34;21.90;99.90
12853;DHT22;6495;51.808;7.478;2022-07-21T02:26:03;21.90;99.90
12853;DHT22;6495;51.808;7.478;2022-07-21T02:28:32;21.80;99.90
12853;DHT22;6495;51.808;7.478;2022-07-21T02:31:01;21.80;99.90
12853;DHT22;6495;51.808;7.478;2022-07-21T02:33:30;21.80;99.90
12853;DHT22;6495;51.808;7.478;2022-07-21T02:35:58;21.70;99.90
12853;DHT22;6495;51.808;7.478;2022-07-21T02:38:27;21.70;99.90
12853;DHT22;6495;51.808;7.478;2022-07-21T02:40:55;21.70;99.90
12853;DHT22;6495;51.808;7.478;2022-07-21T02:43:23;21.60;99.90
12853;DHT22;6495;51.808;7.478;2022-07-21T02:45:52;21.60;99.90
12853;DHT22;6495;51.808;7.478;2022-07-21T02:48:22;21.70;99.90
12853;DHT22;6495;51.808;7.478;2022-07-21T02:50:50;21.70;99.90
12853;DHT22;6495;51.808;7.478;2022-07-21T02:53:19;21.70;99.90
12853;DHT22;6495;51.808;7.478;2022-07-21T02:55:50;21.70;99.90
12853;DHT22;6495;51.808;7.478;2022-07-21T02:58:21;21.60;99.90
12853;DHT22;6495;51.808;7.478;2022-07-21T03:00:53;21.60;99.90
12853;DHT22;6495;51.808;7.478;2022-07-21T03:03:26;21.60;99.90
12853;DHT22;6495;51.808;7.478;2022-07-21T03:05:56;21.60;99.90
12853;DHT22;6495;51.808;7.478;2022-07-21T03:08:25;21.50;99.90
12853;DHT22;6495;51.808;7.478;2022-07-21T03:10:55;21.50;99.90
12853;DHT22;6495;51.808;7.478;2022-07-21T03:13:24;21.50;99.90
12853;DHT22;6495;51.808;7.478;2022-07-21T03:15:52;21.50;99.90
12853;DHT22;6495;51.808;7.478;2022-07-21T03:18:21;21.50;99.90
12853;DHT22;6495;51.808;7.478;2022-07-21T03:20:50;21.40;99.90
12853;DHT22;6495;51.808;7.478;2022-07-21T03:23:19;21.40;99.90
12853;DHT22;6495;51.808;7.478;2022-07-21T03:25:47;21.40;99.90
12853;DHT22;6495;51.808;7.478;2022-07-21T03:28:15;21.40;99.90
12853;DHT22;6495;51.808;7.478;2022-07-21T03:30:44;21.40;99.90
12853;DHT22;6495;51.808;7.478;2022-07-21T03:33:13;21.40;99.90
12853;DHT22;6495;51.808;7.478;2022-07-21T03:35:41;21.40;99.90
12853;DHT22;6495;51.808;7.478;2022-07-21T03:38:11;21.40;99.90
12853;DHT22;6495;51.808;7.478;2022-07-21T03:40:40;21.40;99.90
12853;DHT22;6495;51.808;7.478;2022-07-21T03:43:08;21.40;99.90
12853;DHT22;6495;51.808;7.478;2022-07-21T03:45:37;21.30;99.90
12853;DHT22;6495;51.808;7.478;2022-07-21T03:48:06;21.30;99.90
12853;DHT22;6495;51.808;7.478;2022-07-21T03:50:38;21.30;99.90
12853;DHT22;6495;51.808;7.478;2022-07-21T03:53:10;21.30;99.90
12853;DHT22;6495;51.808;7.478;2022-07-21T03:55:39;21.30;99.90
12853;DHT22;6495;51.808;7.478;2022-07-21T03:58:07;21.30;99.90
12853;DHT22;6495;51.808;7.478;2022-07-21T04:00:38;21.30;99.90
12853;DHT22;6495;51.808;7.478;2022-07-21T04:03:09;21.30;99.90
12853;DHT22;6495;51.808;7.478;2022-07-21T04:05:39;21.30;99.90
12853;DHT22;6495;51.808;7.478;2022-07-21T04:08:11;21.30;99.90
12853;DHT22;6495;51.808;7.478;2022-07-21T04:10:42;21.30;99.90
12853;DHT22;6495;51.808;7.478;2022-07-21T04:13:12;21.20;99.90
12853;DHT22;6495;51.808;7.478;2022-07-21T04:15:41;21.20;99.90
12853;DHT22;6495;51.808;7.478;2022-07-21T04:18:10;21.20;99.90
12853;DHT22;6495;51.808;7.478;2022-07-21T04:20:38;21.20;99.90
12853;DHT22;6495;51.808;7.478;2022-07-21T04:23:07;21.20;99.90
12853;DHT22;6495;51.808;7.478;2022-07-21T04:25:37;21.20;99.90
12853;DHT22;6495;51.808;7.478;2022-07-21T04:28:06;21.10;99.90
12853;DHT22;6495;51.808;7.478;2022-07-21T04:30:35;21.10;99.90
12853;DHT22;6495;51.808;7.478;2022-07-21T04:33:04;21.10;99.90
12853;DHT22;6495;51.808;7.478;2022-07-21T04:35:33;21.00;99.90
12853;DHT22;6495;51.808;7.478;2022-07-21T04:38:04;21.00;99.90
12853;DHT22;6495;51.808;7.478;2022-07-21T04:40:33;21.00;99.90
12853;DHT22;6495;51.808;7.478;2022-07-21T04:43:09;21.00;99.90
12853;DHT22;6495;51.808;7.478;2022-07-21T04:45:38;21.00;99.90
12853;DHT22;6495;51.808;7.478;2022-07-21T04:48:08;20.90;99.90
12853;DHT22;6495;51.808;7.478;2022-07-21T04:50:36;20.90;99.90
12853;DHT22;6495;51.808;7.478;2022-07-21T04:53:05;20.80;99.90
12853;DHT22;6495;51.808;7.478;2022-07-21T04:55:33;20.80;99.90
12853;DHT22;6495;51.808;7.478;2022-07-21T04:58:02;20.70;99.90
12853;DHT22;6495;51.808;7.478;2022-07-21T05:00:32;20.70;99.90
12853;DHT22;6495;51.808;7.478;2022-07-21T05:03:00;20.70;99.90
12853;DHT22;6495;51.808;7.478;2022-07-21T05:05:28;20.60;99.90
12853;DHT22;6495;51.808;7.478;2022-07-21T05:07:57;20.50;99.90
12853;DHT22;6495;51.808;7.478;2022-07-21T05:10:25;20.50;99.90
12853;DHT22;6495;51.808;7.478;2022-07-21T05:12:54;20.40;99.90
12853;DHT22;6495;51.808;7.478;2022-07-21T05:15:22;20.40;99.90
12853;DHT22;6495;51.808;7.478;2022-07-21T05:17:52;20.40;99.90
12853;DHT22;6495;51.808;7.478;2022-07-21T05:20:21;20.40;99.90
12853;DHT22;6495;51.808;7.478;2022-07-21T05:22:49;20.30;99.90
12853;DHT22;6495;51.808;7.478;2022-07-21T05:25:18;20.30;99.90
12853;DHT22;6495;51.808;7.478;2022-07-21T05:27:46;20.30;99.90
12853;DHT22;6495;51.808;7.478;2022-07-21T05:30:15;20.30;99.90
12853;DHT22;6495;51.808;7.478;2022-07-21T05:32:43;20.30;99.90
12853;DHT22;6495;51.808;7.478;2022-07-21T05:35:15;20.20;99.90
12853;DHT22;6495;51.808;7.478;2022-07-21T05:37:44;20.20;99.90
12853;DHT22;6495;51.808;7.478;2022-07-21T05:40:14;20.20;99.90
12853;DHT22;6495;51.808;7.478;2022-07-21T05:42:43;20.20;99.90
12853;DHT22;6495;51.808;7.478;2022-07-21T05:45:12;20.20;99.90
12853;DHT22;6495;51.808;7.478;2022-07-21T05:47:41;20.20;99.90
12853;DHT22;6495;51.808;7.478;2022-07-21T05:50:10;20.20;99.90
12853;DHT22;6495;51.808;7.478;2022-07-21T05:52:41;20.20;99.90
12853;DHT22;6495;51.808;7.478;2022-07-21T05:55:09;20.20;99.90
12853;DHT22;6495;51.808;7.478;2022-07-21T05:57:38;20.20;99.90
12853;DHT22;6495;51.808;7.478;2022-07-21T06:00:13;20.20;99.90
12853;DHT22;6495;51.808;7.478;2022-07-21T06:02:43;20.20;99.90
12853;DHT22;6495;51.808;7.478;2022-07-21T06:05:15;20.20;99.90
12853;DHT22;6495;51.808;7.478;2022-07-21T06:07:45;20.20;99.90
12853;DHT22;6495;51.808;7.478;2022-07-21T06:10:15;20.20;99.90
12853;DHT22;6495;51.808;7.478;2022-07-21T06:12:48;20.20;99.90
12853;DHT22;6495;51.808;7.478;2022-07-21T06:15:17;20.20;99.90
12853;DHT22;6495;51.808;7.478;2022-07-21T06:17:47;20.30;99.90
12853;DHT22;6495;51.808;7.478;2022-07-21T06:20:15;20.30;99.90
12853;DHT22;6495;51.808;7.478;2022-07-21T06:22:45;20.40;99.90
12853;DHT22;6495;51.808;7.478;2022-07-21T06:25:14;20.40;99.90
12853;DHT22;6495;51.808;7.478;2022-07-21T06:27:42;20.40;99.90
12853;DHT22;6495;51.808;7.478;2022-07-21T06:30:11;20.40;99.90
12853;DHT22;6495;51.808;7.478;2022-07-21T06:32:40;20.40;99.90
12853;DHT22;6495;51.808;7.478;2022-07-21T06:35:09;20.40;99.90
12853;DHT22;6495;51.808;7.478;2022-07-21T06:37:38;20.50;99.90
12853;DHT22;6495;51.808;7.478;2022-07-21T06:40:09;20.40;99.90
12853;DHT22;6495;51.808;7.478;2022-07-21T06:42:38;20.50;99.90
12853;DHT22;6495;51.808;7.478;2022-07-21T06:45:27;20.50;99.90
12853;DHT22;6495;51.808;7.478;2022-07-21T06:48:00;20.60;99.90
12853;DHT22;6495;51.808;7.478;2022-07-21T06:50:30;20.60;99.90
12853;DHT22;6495;51.808;7.478;2022-07-21T06:52:59;20.60;99.90
12853;DHT22;6495;51.808;7.478;2022-07-21T06:55:29;20.70;99.90
12853;DHT22;6495;51.808;7.478;2022-07-21T06:57:57;20.60;99.90
12853;DHT22;6495;51.808;7.478;2022-07-21T07:00:26;20.60;99.90
12853;DHT22;6495;51.808;7.478;2022-07-21T07:02:54;20.70;99.90
12853;DHT22;6495;51.808;7.478;2022-07-21T07:05:23;20.70;99.90
12853;DHT22;6495;51.808;7.478;2022-07-21T07:07:54;20.70;99.90
12853;DHT22;6495;51.808;7.478;2022-07-21T07:10:23;20.70;99.90
12853;DHT22;6495;51.808;7.478;2022-07-21T07:12:53;20.70;99.90
12853;DHT22;6495;51.808;7.478;2022-07-21T07:15:42;20.70;99.90
12853;DHT22;6495;51.808;7.478;2022-07-21T07:18:11;20.70;99.90
12853;DHT22;6495;51.808;7.478;2022-07-21T07:20:39;20.70;99.90
12853;DHT22;6495;51.808;7.478;2022-07-21T07:23:08;20.70;99.90
12853;DHT22;6495;51.808;7.478;2022-07-21T07:25:36;20.70;99.90
12853;DHT22;6495;51.808;7.478;2022-07-21T07:28:06;20.70;99.90
12853;DHT22;6495;51.808;7.478;2022-07-21T07:30:36;20.80;99.90
12853;DHT22;6495;51.808;7.478;2022-07-21T07:33:04;20.80;99.90
12853;DHT22;6495;51.808;7.478;2022-07-21T07:35:32;20.80;99.90
12853;DHT22;6495;51.808;7.478;2022-07-21T07:38:01;20.80;99.90
12853;DHT22;6495;51.808;7.478;2022-07-21T07:40:30;20.80;99.90
12853;DHT22;6495;51.808;7.478;2022-07-21T07:42:58;20.90;99.90
12853;DHT22;6495;51.808;7.478;2022-07-21T07:45:35;20.80;99.90
12853;DHT22;6495;51.808;7.478;2022-07-21T07:48:05;20.90;99.90
12853;DHT22;6495;51.808;7.478;2022-07-21T07:50:34;20.90;99.90
12853;DHT22;6495;51.808;7.478;2022-07-21T07:53:02;20.90;99.90
12853;DHT22;6495;51.808;7.478;2022-07-21T07:55:31;20.90;99.90
12853;DHT22;6495;51.808;7.478;2022-07-21T07:57:59;20.90;99.90
12853;DHT22;6495;51.808;7.478;2022-07-21T08:00:28;20.90;99.90
12853;DHT22;6495;51.808;7.478;2022-07-21T08:03:18;20.90;99.90
12853;DHT22;6495;51.808;7.478;2022-07-21T08:05:46;20.90;99.90
12853;DHT22;6495;51.808;7.478;2022-07-21T08:08:16;20.90;99.90
12853;DHT22;6495;51.808;7.478;2022-07-21T08:10:45;20.90;99.90
12853;DHT22;6495;51.808;7.478;2022-07-21T08:13:17;20.90;99.90
12853;DHT22;6495;51.808;7.478;2022-07-21T08:15:47;20.90;99.90
12853;DHT22;6495;51.808;7.478;2022-07-21T08:18:18;20.90;99.90
12853;DHT22;6495;51.808;7.478;2022-07-21T08:20:48;20.80;99.90
12853;DHT22;6495;51.808;7.478;2022-07-21T08:23:16;20.90;99.90
12853;DHT22;6495;51.808;7.478;2022-07-21T08:25:45;20.90;99.90
12853;DHT22;6495;51.808;7.478;2022-07-21T08:28:13;20.90;99.90
12853;DHT22;6495;51.808;7.478;2022-07-21T08:30:42;20.90;99.90
12853;DHT22;6495;51.808;7.478;2022-07-21T08:33:10;20.90;99.90
12853;DHT22;6495;51.808;7.478;2022-07-21T08:35:40;20.90;99.90
12853;DHT22;6495;51.808;7.478;2022-07-21T08:38:09;21.00;99.90
12853;DHT22;6495;51.808;7.478;2022-07-21T08:40:40;21.00;99.90
12853;DHT22;6495;51.808;7.478;2022-07-21T08:43:11;21.10;99.90
12853;DHT22;6495;51.808;7.478;2022-07-21T08:45:42;21.10;99.90
12853;DHT22;6495;51.808;7.478;2022-07-21T08:48:11;21.10;99.90
12853;DHT22;6495;51.808;7.478;2022-07-21T08:50:46;21.20;99.90
12853;DHT22;6495;51.808;7.478;2022-07-21T08:53:15;21.20;99.90
12853;DHT22;6495;51.808;7.478;2022-07-21T08:55:43;21.30;99.90
12853;DHT22;6495;51.808;7.478;2022-07-21T08:58:13;21.30;99.90
12853;DHT22;6495;51.808;7.478;2022-07-21T09:00:44;21.40;99.90
12853;DHT22;6495;51.808;7.478;2022-07-21T09:03:16;21.40;99.90
12853;DHT22;6495;51.808;7.478;2022-07-21T09:06:04;21.50;99.90
12853;DHT22;6495;51.808;7.478;2022-07-21T09:08:36;21.50;99.90
12853;DHT22;6495;51.808;7.478;2022-07-21T09:11:10;21.50;99.90
12853;DHT22;6495;51.808;7.478;2022-07-21T09:13:41;21.60;99.90
12853;DHT22;6495;51.808;7.478;2022-07-21T09:16:12;21.60;99.90
12853;DHT22;6495;51.808;7.478;2022-07-21T09:18:49;21.70;99.90
12853;DHT22;6495;51.808;7.478;2022-07-21T09:21:20;21.80;99.90
12853;DHT22;6495;51.808;7.478;2022-07-21T09:23:49;21.90;99.90
12853;DHT22;6495;51.808;7.478;2022-07-21T09:26:17;21.90;99.90
12853;DHT22;6495;51.808;7.478;2022-07-21T09:28:45;22.00;99.90
12853;DHT22;6495;51.808;7.478;2022-07-21T09:31:13;22.10;99.90
12853;DHT22;6495;51.808;7.478;2022-07-21T09:33:42;22.20;99.90
12853;DHT22;6495;51.808;7.478;2022-07-21T09:36:13;22.30;99.90
12853;DHT22;6495;51.808;7.478;2022-07-21T09:38:49;22.40;99.90
12853;DHT22;6495;51.808;7.478;2022-07-21T09:41:20;22.40;99.90
12853;DHT22;6495;51.808;7.478;2022-07-21T09:43:51;22.50;99.90
12853;DHT22;6495;51.808;7.478;2022-07-21T09:46:24;22.50;99.90
12853;DHT22;6495;51.808;7.478;2022-07-21T09:48:55;22.60;99.90
12853;DHT22;6495;51.808;7.478;2022-07-21T09:51:50;22.70;99.90
12853;DHT22;6495;51.808;7.478;2022-07-21T09:54:19;22.80;99.90
12853;DHT22;6495;51.808;7.478;2022-07-21T09:56:47;22.90;99.90
12853;DHT22;6495;51.808;7.478;2022-07-21T09:59:16;23.00;99.90
12853;DHT22;6495;51.808;7.478;2022-07-21T10:01:46;23.10;99.90
12853;DHT22;6495;51.808;7.478;2022-07-21T10:04:19;23.10;99.90
12853;DHT22;6495;51.808;7.478;2022-07-21T10:07:16;23.10;99.90
12853;DHT22;6495;51.808;7.478;2022-07-21T10:09:50;23.10;99.90
12853;DHT22;6495;51.808;7.478;2022-07-21T10:12:26;23.10;99.90
12853;DHT22;6495;51.808;7.478;2022-07-21T10:14:55;23.10;99.90
12853;DHT22;6495;51.808;7.478;2022-07-21T10:17:24;23.10;99.90
12853;DHT22;6495;51.808;7.478;2022-07-21T10:20:03;23.10;99.90
12853;DHT22;6495;51.808;7.478;2022-07-21T10:22:48;23.10;99.90
12853;DHT22;6495;51.808;7.478;2022-07-21T10:25:29;23.10;99.90
12853;DHT22;6495;51.808;7.478;2022-07-21T10:28:12;23.20;99.90
12853;DHT22;6495;51.808;7.478;2022-07-21T10:30:43;23.30;99.90
12853;DHT22;6495;51.808;7.478;2022-07-21T10:33:15;23.30;99.90
12853;DHT22;6495;51.808;7.478;2022-07-21T10:35:46;23.30;99.90
12853;DHT22;6495;51.808;7.478;2022-07-21T10:38:26;23.40;99.90
12853;DHT22;6495;51.808;7.478;2022-07-21T10:41:00;23.50;99.90
12853;DHT22;6495;51.808;7.478;2022-07-21T10:43:39;23.50;99.90
12853;DHT22;6495;51.808;7.478;2022-07-21T10:46:35;23.60;99.90
12853;DHT22;6495;51.808;7.478;2022-07-21T10:49:08;23.60;99.90
12853;DHT22;6495;51.808;7.478;2022-07-21T10:51:41;23.60;99.90
12853;DHT22;6495;51.808;7.478;2022-07-21T10:54:24;23.60;99.90
12853;DHT22;6495;51.808;7.478;2022-07-21T10:57:27;23.60;99.90
12853;DHT22;6495;51.808;7.478;2022-07-21T11:00:15;23.60;99.90
12853;DHT22;6495;51.808;7.478;2022-07-21T11:02:50;23.60;99.90
12853;DHT22;6495;51.808;7.478;2022-07-21T11:05:21;23.60;99.90
12853;DHT22;6495;51.808;7.478;2022-07-21T11:08:12;23.60;99.90
12853;DHT22;6495;51.808;7.478;2022-07-21T11:10:47;23.60;99.90
12853;DHT22;6495;51.808;7.478;2022-07-21T11:13:21;23.70;99.90
12853;DHT22;6495;51.808;7.478;2022-07-21T11:15:57;23.70;99.90
12853;DHT22;6495;51.808;7.478;2022-07-21T11:18:42;23.80;99.90
12853;DHT22;6495;51.808;7.478;2022-07-21T11:21:16;23.80;99.90
12853;DHT22;6495;51.808;7.478;2022-07-21T11:23:46;23.90;99.90
12853;DHT22;6495;51.808;7.478;2022-07-21T11:26:23;23.90;99.90
12853;DHT22;6495;51.808;7.478;2022-07-21T11:29:05;24.00;99.90
12853;DHT22;6495;51.808;7.478;2022-07-21T11:31:45;24.00;99.90
12853;DHT22;6495;51.808;7.478;2022-07-21T11:34:13;24.10;99.90
12853;DHT22;6495;51.808;7.478;2022-07-21T11:36:42;24.10;99.90
12853;DHT22;6495;51.808;7.478;2022-07-21T11:39:13;24.10;99.90
12853;DHT22;6495;51.808;7.478;2022-07-21T11:41:43;24.20;99.90
12853;DHT22;6495;51.808;7.478;2022-07-21T11:44:22;24.10;99.90
12853;DHT22;6495;51.808;7.478;2022-07-21T11:46:53;24.10;99.90
12853;DHT22;6495;51.808;7.478;2022-07-21T11:49:22;24.10;99.90
12853;DHT22;6495;51.808;7.478;2022-07-21T11:51:53;23.80;99.90
12853;DHT22;6495;51.808;7.478;2022-07-21T11:54:35;23.60;99.90
12853;DHT22;6495;51.808;7.478;2022-07-21T11:57:08;23.30;99.90
12853;DHT22;6495;51.808;7.478;2022-07-21T11:59:38;23.10;99.90
12853;DHT22;6495;51.808;7.478;2022-07-21T12:02:09;23.00;99.90
12853;DHT22;6495;51.808;7.478;2022-07-21T12:04:43;22.90;99.90
12853;DHT22;6495;51.808;7.478;2022-07-21T12:07:18;22.90;99.90
12853;DHT22;6495;51.808;7.478;2022-07-21T12:09:49;22.80;99.90
12853;DHT22;6495;51.808;7.478;2022-07-21T12:12:31;22.70;99.90
12853;DHT22;6495;51.808;7.478;2022-07-21T12:15:14;22.70;99.90
12853;DHT22;6495;51.808;7.478;2022-07-21T12:17:45;22.70;99.90
12853;DHT22;6495;51.808;7.478;2022-07-21T12:20:24;22.70;99.90
12853;DHT22;6495;51.808;7.478;2022-07-21T12:22:54;22.60;99.90
12853;DHT22;6495;51.808;7.478;2022-07-21T12:25:33;22.60;99.90
12853;DHT22;6495;51.808;7.478;2022-07-21T12:28:13;22.60;99.90
12853;DHT22;6495;51.808;7.478;2022-07-21T12:30:46;22.70;99.90
12853;DHT22;6495;51.808;7.478;2022-07-21T12:33:18;22.70;99.90
12853;DHT22;6495;51.808;7.478;2022-07-21T12:35:58;22.60;99.90
12853;DHT22;6495;51.808;7.478;2022-07-21T12:38:35;22.60;99.90
12853;DHT22;6495;51.808;7.478;2022-07-21T12:41:04;22.50;99.90
12853;DHT22;6495;51.808;7.478;2022-07-21T12:43:55;22.40;99.90
12853;DHT22;6495;51.808;7.478;2022-07-21T12:46:30;22.30;99.90
12853;DHT22;6495;51.808;7.478;2022-07-21T12:49:06;22.20;99.90
12853;DHT22;6495;51.808;7.478;2022-07-21T12:51:38;22.20;99.90
12853;DHT22;6495;51.808;7.478;2022-07-21T12:54:11;22.20;99.90
12853;DHT22;6495;51.808;7.478;2022-07-21T12:56:39;22.20;99.90
12853;DHT22;6495;51.808;7.478;2022-07-21T12:59:07;22.20;99.90
12853;DHT22;6495;51.808;7.478;2022-07-21T13:01:37;22.20;99.90
12853;DHT22;6495;51.808;7.478;2022-07-21T13:04:06;22.30;99.90
12853;DHT22;6495;51.808;7.478;2022-07-21T13:06:35;22.30;99.90
12853;DHT22;6495;51.808;7.478;2022-07-21T13:09:04;22.40;99.90
12853;DHT22;6495;51.808;7.478;2022-07-21T13:11:33;22.50;99.90
12853;DHT22;6495;51.808;7.478;2022-07-21T13:14:01;22.50;99.90
12853;DHT22;6495;51.808;7.478;2022-07-21T13:16:30;22.60;99.90
12853;DHT22;6495;51.808;7.478;2022-07-21T13:19:00;22.60;99.90
12853;DHT22;6495;51.808;7.478;2022-07-21T13:21:28;22.60;99.90
12853;DHT22;6495;51.808;7.478;2022-07-21T13:23:56;22.60;99.90
12853;DHT22;6495;51.808;7.478;2022-07-21T13:26:24;22.70;99.90
12853;DHT22;6495;51.808;7.478;2022-07-21T13:28:52;22.70;99.90
12853;DHT22;6495;51.808;7.478;2022-07-21T13:31:22;22.70;99.90
12853;DHT22;6495;51.808;7.478;2022-07-21T13:33:51;22.70;99.90
12853;DHT22;6495;51.808;7.478;2022-07-21T13:36:22;22.70;99.90
12853;DHT22;6495;51.808;7.478;2022-07-21T13:38:49;22.70;99.90
12853;DHT22;6495;51.808;7.478;2022-07-21T13:41:37;22.70;99.90
12853;DHT22;6495;51.808;7.478;2022-07-21T13:44:27;22.70;99.90
12853;DHT22;6495;51.808;7.478;2022-07-21T13:46:55;22.70;99.90
12853;DHT22;6495;51.808;7.478;2022-07-21T13:49:23;22.60;99.90
12853;DHT22;6495;51.808;7.478;2022-07-21T13:51:53;22.60;99.90
12853;DHT22;6495;51.808;7.478;2022-07-21T13:54:21;22.60;99.90
12853;DHT22;6495;51.808;7.478;2022-07-21T13:56:55;22.50;99.90
12853;DHT22;6495;51.808;7.478;2022-07-21T13:59:25;22.40;99.90
12853;DHT22;6495;51.808;7.478;2022-07-21T14:01:54;22.40;99.90
12853;DHT22;6495;51.808;7.478;2022-07-21T14:04:23;22.30;99.90
12853;DHT22;6495;51.808;7.478;2022-07-21T14:06:52;22.30;99.90
12853;DHT22;6495;51.808;7.478;2022-07-21T14:09:20;22.30;99.90
12853;DHT22;6495;51.808;7.478;2022-07-21T14:11:49;22.20;99.90
12853;DHT22;6495;51.808;7.478;2022-07-21T14:14:19;22.20;99.90
12853;DHT22;6495;51.808;7.478;2022-07-21T14:16:49;22.10;99.90
12853;DHT22;6495;51.808;7.478;2022-07-21T14:19:17;22.10;99.90
12853;DHT22;6495;51.808;7.478;2022-07-21T14:21:45;22.10;99.90
12853;DHT22;6495;51.808;7.478;2022-07-21T14:24:16;22.10;99.90
12853;DHT22;6495;51.808;7.478;2022-07-21T14:27:07;22.10;99.90
12853;DHT22;6495;51.808;7.478;2022-07-21T14:29:39;22.00;99.90
12853;DHT22;6495;51.808;7.478;2022-07-21T14:32:07;22.00;99.90
12853;DHT22;6495;51.808;7.478;2022-07-21T14:34:35;22.00;99.90
12853;DHT22;6495;51.808;7.478;2022-07-21T14:37:03;22.00;99.90
12853;DHT22;6495;51.808;7.478;2022-07-21T14:39:32;22.00;99.90
12853;DHT22;6495;51.808;7.478;2022-07-21T14:42:04;22.00;99.90
12853;DHT22;6495;51.808;7.478;2022-07-21T14:44:32;22.00;99.90
12853;DHT22;6495;51.808;7.478;2022-07-21T14:47:00;22.10;99.90
12853;DHT22;6495;51.808;7.478;2022-07-21T14:49:29;22.10;99.90
12853;DHT22;6495;51.808;7.478;2022-07-21T14:51:57;22.10;99.90
12853;DHT22;6495;51.808;7.478;2022-07-21T14:54:25;22.10;99.90
12853;DHT22;6495;51.808;7.478;2022-07-21T14:56:56;22.10;99.90
12853;DHT22;6495;51.808;7.478;2022-07-21T14:59:35;22.10;99.90
12853;DHT22;6495;51.808;7.478;2022-07-21T15:02:06;22.10;99.90
12853;DHT22;6495;51.808;7.478;2022-07-21T15:04:48;22.10;99.90
12853;DHT22;6495;51.808;7.478;2022-07-21T15:07:17;22.10;99.90
12853;DHT22;6495;51.808;7.478;2022-07-21T15:09:45;22.10;99.90
12853;DHT22;6495;51.808;7.478;2022-07-21T15:12:15;22.10;99.90
12853;DHT22;6495;51.808;7.478;2022-07-21T15:14:43;22.10;99.90
12853;DHT22;6495;51.808;7.478;2022-07-21T15:17:11;22.10;99.90
12853;DHT22;6495;51.808;7.478;2022-07-21T15:19:39;22.10;99.90
12853;DHT22;6495;51.808;7.478;2022-07-21T15:22:08;22.10;99.90
12853;DHT22;6495;51.808;7.478;2022-07-21T15:24:36;22.00;99.90
12853;DHT22;6495;51.808;7.478;2022-07-21T15:27:07;22.00;99.90
12853;DHT22;6495;51.808;7.478;2022-07-21T15:29:36;21.90;99.90
12853;DHT22;6495;51.808;7.478;2022-07-21T15:32:05;21.90;99.90
12853;DHT22;6495;51.808;7.478;2022-07-21T15:34:33;21.80;99.90
12853;DHT22;6495;51.808;7.478;2022-07-21T15:37:01;21.80;99.90
12853;DHT22;6495;51.808;7.478;2022-07-21T15:39:29;21.70;99.90
12853;DHT22;6495;51.808;7.478;2022-07-21T15:41:57;21.70;99.90
12853;DHT22;6495;51.808;7.478;2022-07-21T15:44:26;21.70;99.90
12853;DHT22;6495;51.808;7.478;2022-07-21T15:46:55;21.60;99.90
12853;DHT22;6495;51.808;7.478;2022-07-21T15:49:23;21.70;99.90
12853;DHT22;6495;51.808;7.478;2022-07-21T15:51:51;21.60;99.90
12853;DHT22;6495;51.808;7.478;2022-07-21T15:54:21;21.60;99.90
12853;DHT22;6495;51.808;7.478;2022-07-21T15:57:09;21.50;99.90
12853;DHT22;6495;51.808;7.478;2022-07-21T15:59:38;21.50;99.90
12853;DHT22;6495;51.808;7.478;2022-07-21T16:02:09;21.40;99.90
12853;DHT22;6495;51.808;7.478;2022-07-21T16:04:39;21.40;99.90
12853;DHT22;6495;51.808;7.478;2022-07-21T16:07:10;21.30;99.90
12853;DHT22;6495;51.808;7.478;2022-07-21T16:09:40;21.30;99.90